LFKC/CLY METAR and TAF weather

Enter ICAO airport designator
Station Type Date Time Source
LFKC METAR 2021/04/13 07:00 UTC NOAA

LFKC 130700Z AUTO VRB02KT 9999 SCT058 SCT068 14/08 Q1017 NOSIG


Station Type Date Time Source
LFKC Decoded METAR 2021/04/13 07:00 UTC NOAA

Calvi, France (LFKC) 42-32N 008-48E 58M
Apr 13, 2021 - 03:00 AM EDT / 2021.04.13 0700 UTC
Wind: Variable at 2 MPH (2 KT):0
Visibility: greater than 7 mile(s):0
Sky conditions: partly cloudy
Temperature: 57 F (14 C)
Dew Point: 46 F (8 C)
Relative Humidity: 67%
Pressure (altimeter): 30.03 in. Hg (1017 hPa)
ob: LFKC 130700Z AUTO VRB02KT 9999 SCT058 SCT068 14/08 Q1017 NOSIG
cycle: 7

Station Type Date Time Source
LFKC TAF 2021/04/13 03:47 UTC NOAA

TAF LFKC 130200Z 1303/1403 20005KT 9999 BKN030 TX17/1313Z TN05/1403Z
BECMG 1310/1312 35010KT CAVOK
BECMG 1315/1318 VRB05KT

Example: see airport list